Pagrindinis puslapis
METAR-TAF:

METAR-TAF

Oro uostai :

Pontianakas, Indonezija

platuma: 00-09S, ilguma: 109-24E, Aukštis: 3 m

Dabartinis oras

Ataskaita buvo paskelbta 35 minutes, ne 00:30 UTC
Vėjas 4 kt iš Rytų/Šiaurės Rytų
Temperatūra 25°C
Drėgmė 89%
Slėgis 1009 hPa
Matomumas: 0700 m
rūkas

METAR: WIOO 270030Z 06004KT 0700 FG VV005 25/23 Q1009 TEMPO FM0100 0600

Laikas: 08:05 (01:05 UTC)


TAF: trūkstamas

Orai ataskaitas ir orų prognozės (METAR, TAF).

turimą stotys yra geltonos ir raudonos taškus žemėlapyje.

Perkelti pele per norėdami pamatyti stoties vardą.

Tada spustelėkite, norėdami matyti oro stebėjimo ir prognozės.

Norėdami pakeisti žemėlapį: spustelėkite ant žalios mygtukų su juodo kryžiaus žemyn,; žalią mygtuką su brūkšneliu, jei norite nutolinti; arba žalių rodyklių gretimoms žemėlapius.


METAR-TAF: